createdAt,value
2022-10-05T00:04:32.602Z,8.498327759197325
2022-10-05T00:17:44.051Z,8.444816053511706
2022-10-05T00:28:37.578Z,8.568561872909699
2022-10-05T00:35:05.041Z,9.270903010033445
2022-10-05T00:43:03.222Z,9.214046822742475
2022-10-05T00:49:54.936Z,9.421404682274247
2022-10-05T00:56:24.142Z,9.264214046822742
2022-10-05T01:02:52.283Z,9.361204013377927
2022-10-05T01:09:21.784Z,9.05685618729097
2022-10-05T01:15:50.909Z,9.826086956521738
2022-10-05T01:33:29.376Z,9.799331103678929
2022-10-05T01:40:10.866Z,9.535117056856187
2022-10-05T01:46:39.558Z,9.792642140468228
2022-10-05T01:53:10.688Z,10.351170568561873
2022-10-05T01:59:39.885Z,9.899665551839465
2022-10-05T02:06:07.306Z,10.33779264214047
2022-10-05T02:13:45.897Z,10.020066889632107
2022-10-05T02:20:14.563Z,9.618729096989966
2022-10-05T02:26:42.743Z,9.525083612040135
2022-10-05T02:38:01.252Z,9.391304347826088
2022-10-05T02:44:29.380Z,9.123745819397993
2022-10-05T02:50:57.051Z,9.334448160535118
2022-10-05T03:03:38.693Z,10.033444816053512
2022-10-05T03:10:42.456Z,10.063545150501673
2022-10-05T03:17:11.257Z,10.016722408026755
2022-10-05T03:28:40.284Z,10.214046822742475
2022-10-05T03:35:21.018Z,10.050167224080267
2022-10-05T03:44:08.725Z,10.926421404682275
2022-10-05T03:50:39.053Z,10.729096989966555
2022-10-05T03:57:11.757Z,10.702341137123746
2022-10-05T04:03:42.966Z,10.806020066889632
2022-10-05T04:10:30.406Z,10.909698996655518
2022-10-05T04:17:02.120Z,11.324414715719064
2022-10-05T04:23:42.184Z,11.97324414715719
2022-10-05T04:31:46.397Z,11.755852842809364
2022-10-05T04:38:19.935Z,12.735785953177258
2022-10-05T04:59:00.073Z,13.0
2022-10-05T05:05:29.636Z,13.558528428093645
2022-10-05T05:11:58.349Z,14.137123745819398
2022-10-05T05:24:52.968Z,14.023411371237458
2022-10-05T05:31:21.951Z,14.26086956521739
2022-10-05T05:41:58.384Z,13.7123745819398
2022-10-05T05:48:26.727Z,14.896321070234114
2022-10-05T05:59:58.334Z,13.963210702341136
2022-10-05T06:06:25.952Z,14.060200668896321
2022-10-05T06:12:53.408Z,14.37123745819398
2022-10-05T06:19:20.750Z,13.919732441471572
2022-10-05T06:32:06.581Z,13.438127090301004
2022-10-05T06:38:59.998Z,13.23076923076923
2022-10-05T06:45:27.395Z,14.040133779264215
2022-10-05T06:57:19.274Z,13.605351170568563
2022-10-05T07:03:46.373Z,12.508361204013378
2022-10-05T07:10:13.705Z,12.88628762541806
2022-10-05T07:16:41.086Z,12.421404682274247
2022-10-05T07:23:10.128Z,12.899665551839465
2022-10-05T07:29:40.554Z,12.478260869565217
2022-10-05T07:36:09.798Z,12.68227424749164
2022-10-05T07:42:47.392Z,12.993311036789297
2022-10-05T07:56:29.441Z,12.267558528428093
2022-10-05T08:03:00.582Z,11.77257525083612
2022-10-05T08:09:27.550Z,11.321070234113712
2022-10-05T08:15:54.694Z,10.82943143812709
2022-10-05T08:22:23.311Z,10.836120401337793
2022-10-05T08:29:00.793Z,10.538461538461538
2022-10-05T08:35:27.905Z,10.62876254180602
2022-10-05T08:47:03.677Z,10.036789297658864
2022-10-05T08:53:32.711Z,10.735785953177258
2022-10-05T09:00:35.990Z,10.889632107023411
2022-10-05T09:07:03.281Z,11.538461538461538
2022-10-05T09:13:33.198Z,10.91638795986622
2022-10-05T09:20:07.401Z,11.143812709030101
2022-10-05T09:26:46.712Z,11.280936454849499
2022-10-05T09:33:14.063Z,11.45819397993311
2022-10-05T09:39:45.089Z,12.05685618729097
2022-10-05T09:46:34.732Z,12.498327759197325
2022-10-05T09:53:08.217Z,11.749163879598662
2022-10-05T10:08:13.764Z,10.474916387959865
2022-10-05T10:14:42.378Z,9.979933110367893
2022-10-05T10:21:13.078Z,8.993311036789297
2022-10-05T10:30:16.687Z,9.107023411371237
2022-10-05T10:36:47.026Z,8.79598662207358
2022-10-05T10:43:20.420Z,7.986622073578595
2022-10-05T10:49:50.393Z,7.301003344481606
2022-10-05T11:02:13.824Z,6.006688963210703
2022-10-05T11:13:44.565Z,5.130434782608695
2022-10-05T11:20:12.424Z,5.0200668896321075
2022-10-05T11:26:53.794Z,5.655518394648829
2022-10-05T11:34:20.869Z,5.508361204013378
2022-10-05T11:44:07.096Z,5.6521739130434785
2022-10-05T11:50:34.326Z,4.782608695652174
2022-10-05T11:57:02.438Z,4.6521739130434785
2022-10-05T12:06:04.195Z,4.003344481605351
2022-10-05T12:17:04.253Z,3.9063545150501673
2022-10-05T12:23:33.093Z,4.210702341137123
2022-10-05T12:30:07.130Z,5.2441471571906355
2022-10-05T12:41:09.792Z,5.1404682274247495
2022-10-05T12:47:37.580Z,5.705685618729097
2022-10-05T13:00:28.083Z,6.645484949832776
2022-10-05T13:08:25.122Z,6.956521739130435
2022-10-05T13:14:53.431Z,7.4280936454849495
2022-10-05T13:21:21.514Z,7.745819397993311
2022-10-05T13:28:01.221Z,8.143812709030101
2022-10-05T13:44:22.280Z,8.250836120401338
2022-10-05T13:50:50.321Z,8.304347826086957
2022-10-05T13:57:19.629Z,9.424749163879598
2022-10-05T14:15:56.373Z,9.080267558528428
2022-10-05T14:22:26.853Z,9.946488294314381
2022-10-05T14:30:39.397Z,10.063545150501673
2022-10-05T14:37:25.338Z,9.876254180602007
2022-10-05T14:43:56.361Z,9.147157190635452
2022-10-05T14:50:27.713Z,9.464882943143813
2022-10-05T14:56:57.917Z,9.244147157190636
2022-10-05T15:03:28.701Z,9.68227424749164
2022-10-05T15:09:59.144Z,9.558528428093645
2022-10-05T15:16:29.245Z,9.384615384615385
2022-10-05T15:23:05.396Z,9.62541806020067
2022-10-05T15:34:32.328Z,10.160535117056856
2022-10-05T15:41:01.936Z,9.85953177257525
2022-10-05T15:52:55.326Z,9.665551839464882
2022-10-05T15:59:26.098Z,9.816053511705686
2022-10-05T16:05:56.971Z,10.02675585284281
2022-10-05T16:12:28.952Z,10.461538461538462
2022-10-05T16:26:58.925Z,10.665551839464882
2022-10-05T16:33:26.347Z,9.25418060200669
2022-10-05T16:39:54.495Z,8.872909698996656
2022-10-05T16:46:27.510Z,7.8996655518394645
2022-10-05T16:57:28.006Z,6.809364548494983
2022-10-05T17:03:55.269Z,6.558528428093646
2022-10-05T17:13:16.715Z,5.976588628762542
2022-10-05T17:19:45.731Z,6.558528428093646
2022-10-05T17:26:14.036Z,6.297658862876254
2022-10-05T17:32:53.652Z,5.809364548494983
2022-10-05T17:39:22.269Z,5.508361204013378
2022-10-05T17:45:49.922Z,5.60200668896321
2022-10-05T17:52:17.075Z,5.54180602006689
2022-10-05T17:58:44.450Z,6.0
2022-10-05T18:05:11.545Z,5.842809364548495
2022-10-05T18:18:41.781Z,6.722408026755853
2022-10-05T18:25:09.093Z,6.1003344481605355
2022-10-05T18:31:42.862Z,6.414715719063545
2022-10-05T18:42:09.481Z,5.956521739130435
2022-10-05T18:48:38.545Z,5.765886287625418
2022-10-05T18:55:08.275Z,6.414715719063545
2022-10-05T19:01:45.787Z,5.966555183946488
2022-10-05T19:08:18.687Z,6.030100334448161
2022-10-05T19:14:49.805Z,5.953177257525083
2022-10-05T19:21:18.107Z,5.381270903010034
2022-10-05T19:27:49.743Z,5.508361204013378
2022-10-05T19:38:01.900Z,5.682274247491639
2022-10-05T19:44:31.099Z,4.996655518394649
2022-10-05T19:59:58.622Z,5.046822742474917
2022-10-05T20:06:26.757Z,4.37123745819398
2022-10-05T20:12:55.227Z,2.879598662207358
2022-10-05T20:19:24.969Z,2.3812709030100336
2022-10-05T20:27:25.253Z,2.6187290969899664
2022-10-05T20:34:01.032Z,2.1739130434782608
2022-10-05T20:40:29.394Z,2.367892976588629
2022-10-05T20:52:13.311Z,2.297658862876254
2022-10-05T20:58:40.977Z,1.9163879598662208
2022-10-05T21:12:15.743Z,2.150501672240803
2022-10-05T21:18:43.466Z,1.9264214046822743
2022-10-05T21:27:23.519Z,2.016722408026756
2022-10-05T21:40:10.712Z,2.3377926421404682
2022-10-05T21:46:39.677Z,2.076923076923077
2022-10-05T21:53:07.589Z,2.096989966555184
2022-10-05T22:05:55.165Z,2.1872909698996654
2022-10-05T22:12:31.613Z,2.5250836120401337
2022-10-05T22:18:59.488Z,2.451505016722408
2022-10-05T22:25:27.836Z,2.6956521739130435
2022-10-05T22:33:59.207Z,0.14715719063545152
2022-10-05T22:40:27.184Z,0.016722408026755852
2022-10-05T22:46:55.103Z,0.043478260869565216
2022-10-05T22:53:30.167Z,0.0
2022-10-05T22:59:57.511Z,0.0
2022-10-05T23:06:28.215Z,0.006688963210702341
2022-10-05T23:13:00.491Z,0.0
2022-10-05T23:19:28.690Z,0.013377926421404682
2022-10-05T23:25:56.050Z,0.020066889632107024
2022-10-05T23:32:32.008Z,0.0
2022-10-05T23:38:59.163Z,0.0
2022-10-05T23:45:26.506Z,0.0
2022-10-05T23:51:53.716Z,0.010033444816053512
2022-10-05T23:58:21.632Z,0.016722408026755852
